Time;durP1;ratioP1;P1;durP2;ratioP2;P2;SDS_P1;SDS_P2;PMS_P1;PMS_P2;Temp;Humidity;BMP_temperature;BMP_pressure;BME280_temperature;BME280_humidity;BME280_pressure;Samples;Min_cycle;Max_cycle;Signal;HPM_P1;HPM_P2
2021/12/03 00:01:53;;;;;;;9.25;6.22;;;3.00;99.90;;;;;;5097534;28;20024;-82
2021/12/03 00:04:18;;;;;;;10.40;6.68;;;3.00;99.90;;;;;;5095853;28;20130;-82
2021/12/03 00:06:44;;;;;;;12.63;7.22;;;3.00;99.90;;;;;;5096644;28;20133;-81
2021/12/03 00:09:11;;;;;;;10.73;6.97;;;3.00;99.90;;;;;;5096399;28;20032;-81
2021/12/03 00:11:37;;;;;;;10.05;6.28;;;3.10;99.90;;;;;;5095331;28;20043;-81
2021/12/03 00:14:04;;;;;;;11.27;6.78;;;3.00;99.90;;;;;;5095424;28;20024;-81
2021/12/03 00:16:30;;;;;;;11.30;6.88;;;3.10;99.90;;;;;;5095829;28;20028;-81
2021/12/03 00:18:56;;;;;;;13.23;7.18;;;3.00;99.90;;;;;;5095368;28;20534;-82
2021/12/03 00:21:24;;;;;;;11.52;6.85;;;3.10;99.90;;;;;;5096350;28;20016;-81
2021/12/03 00:23:50;;;;;;;12.30;7.05;;;3.10;99.90;;;;;;5096088;28;20032;-81
2021/12/03 00:26:16;;;;;;;8.43;5.57;;;3.00;99.90;;;;;;5095151;28;20047;-81
2021/12/03 00:28:42;;;;;;;9.57;6.55;;;3.00;99.90;;;;;;5094999;28;20028;-80
2021/12/03 00:31:08;;;;;;;8.93;6.20;;;3.00;99.90;;;;;;5077936;28;20389;-82
2021/12/03 00:33:36;;;;;;;8.88;6.05;;;3.00;99.90;;;;;;5096178;28;20485;-83
2021/12/03 00:36:05;;;;;;;9.57;5.97;;;3.00;99.90;;;;;;5096177;28;20032;-81
2021/12/03 00:38:39;;;;;;;11.18;6.35;;;3.00;99.90;;;;;;5096095;28;20028;-81
2021/12/03 00:41:07;;;;;;;10.50;6.07;;;3.00;99.90;;;;;;5095168;28;20020;-81
2021/12/03 00:43:34;;;;;;;11.18;6.47;;;3.00;99.90;;;;;;5094706;28;20082;-81
2021/12/03 00:46:05;;;;;;;11.50;7.03;;;3.00;99.90;;;;;;5095264;28;20020;-82
2021/12/03 00:48:31;;;;;;;14.52;7.07;;;3.00;99.90;;;;;;5096244;28;20032;-82
2021/12/03 00:50:58;;;;;;;11.77;6.90;;;3.00;99.90;;;;;;5094033;28;20048;-81
2021/12/03 00:53:24;;;;;;;12.85;7.15;;;3.00;99.90;;;;;;5094621;28;20034;-82
2021/12/03 00:55:50;;;;;;;11.32;6.75;;;2.90;99.90;;;;;;5095353;28;20024;-82
2021/12/03 00:58:15;;;;;;;12.95;7.45;;;3.00;99.90;;;;;;5077721;28;20488;-82
2021/12/03 01:00:41;;;;;;;9.27;6.15;;;3.00;99.90;;;;;;5095916;28;20496;-81
2021/12/03 01:03:07;;;;;;;11.27;6.93;;;3.00;99.90;;;;;;5095611;28;20054;-81
2021/12/03 01:05:33;;;;;;;14.77;8.00;;;2.90;99.90;;;;;;5094661;28;20489;-81
2021/12/03 01:08:00;;;;;;;12.55;7.20;;;2.90;99.90;;;;;;5094503;28;20033;-81
2021/12/03 01:10:27;;;;;;;13.00;7.93;;;2.90;99.90;;;;;;5095538;28;20030;-81
2021/12/03 01:12:54;;;;;;;11.55;7.10;;;2.90;99.90;;;;;;5094186;28;20078;-81
2021/12/03 01:15:29;;;;;;;12.90;7.15;;;2.90;99.90;;;;;;5094311;28;20358;-81
2021/12/03 01:17:56;;;;;;;11.57;7.10;;;2.90;99.90;;;;;;5095673;28;20053;-82
2021/12/03 01:20:22;;;;;;;10.95;6.55;;;2.90;99.90;;;;;;5094463;28;20058;-82
2021/12/03 01:22:50;;;;;;;10.52;6.63;;;2.90;99.90;;;;;;5095365;28;20474;-82
2021/12/03 01:25:18;;;;;;;13.98;8.13;;;2.90;99.90;;;;;;5093599;28;20056;-82
2021/12/03 01:27:48;;;;;;;12.48;7.07;;;2.90;99.90;;;;;;5095115;28;20466;-83
2021/12/03 01:30:16;;;;;;;12.65;7.45;;;2.80;99.90;;;;;;5094047;28;20035;-81
2021/12/03 01:32:43;;;;;;;10.85;6.55;;;2.80;99.90;;;;;;5094491;28;20036;-81
2021/12/03 01:35:10;;;;;;;13.35;6.80;;;2.80;99.90;;;;;;5094625;28;20115;-80
2021/12/03 01:37:36;;;;;;;12.25;7.20;;;2.80;99.90;;;;;;5096603;28;20033;-82
2021/12/03 01:40:03;;;;;;;13.40;7.22;;;2.70;99.90;;;;;;5096447;28;20024;-80
2021/12/03 01:42:29;;;;;;;12.68;6.75;;;2.70;99.90;;;;;;5093569;28;20029;-81
2021/12/03 01:44:55;;;;;;;12.60;7.43;;;2.70;99.90;;;;;;5095078;28;20482;-81
2021/12/03 01:47:21;;;;;;;12.90;7.40;;;2.70;99.90;;;;;;5076386;28;20028;-81
2021/12/03 01:49:48;;;;;;;14.00;7.75;;;2.70;99.90;;;;;;5094587;28;20109;-81
2021/12/03 01:52:14;;;;;;;12.07;7.47;;;2.60;99.90;;;;;;5094629;28;20020;-81
2021/12/03 01:54:40;;;;;;;12.82;7.55;;;2.60;99.90;;;;;;5092836;28;20024;-81
2021/12/03 01:57:06;;;;;;;13.48;8.00;;;2.70;99.90;;;;;;5094353;28;20020;-82
2021/12/03 01:59:32;;;;;;;17.25;9.63;;;2.70;99.90;;;;;;5094561;28;20031;-81
2021/12/03 02:01:58;;;;;;;20.25;11.15;;;2.70;99.90;;;;;;5094516;28;20035;-80
2021/12/03 02:04:24;;;;;;;20.67;11.55;;;2.80;99.90;;;;;;5093308;28;20028;-82
2021/12/03 02:06:50;;;;;;;19.48;10.13;;;2.70;99.90;;;;;;5092872;28;20144;-81
2021/12/03 02:09:16;;;;;;;13.25;8.48;;;2.80;99.90;;;;;;5092066;28;20039;-81
2021/12/03 02:11:42;;;;;;;12.85;7.18;;;2.80;99.90;;;;;;5094180;28;20032;-81
2021/12/03 02:14:08;;;;;;;12.60;6.68;;;2.70;99.90;;;;;;5092984;28;20032;-81
2021/12/03 02:16:34;;;;;;;12.00;7.10;;;2.70;99.90;;;;;;5086239;28;20115;-81
2021/12/03 02:19:00;;;;;;;14.20;7.07;;;2.70;99.90;;;;;;5073629;28;20032;-82
2021/12/03 02:21:26;;;;;;;15.98;8.57;;;2.70;99.90;;;;;;5072548;28;20033;-82
2021/12/03 02:23:53;;;;;;;14.77;8.45;;;2.60;99.90;;;;;;5073751;28;20024;-81
2021/12/03 02:26:19;;;;;;;16.77;7.95;;;2.60;99.90;;;;;;5074137;28;20478;-80
2021/12/03 02:28:49;;;;;;;12.48;6.85;;;2.60;99.90;;;;;;5072766;28;20082;-81
2021/12/03 02:31:17;;;;;;;12.50;6.93;;;2.60;99.90;;;;;;5072552;28;20032;-81
2021/12/03 02:33:43;;;;;;;14.57;7.35;;;2.50;99.90;;;;;;5073745;28;20024;-82
2021/12/03 02:36:10;;;;;;;15.90;7.88;;;2.50;99.90;;;;;;5072888;28;20466;-80
2021/12/03 02:38:36;;;;;;;16.83;8.88;;;2.50;99.90;;;;;;5073839;28;20111;-81
2021/12/03 02:41:03;;;;;;;18.40;9.00;;;2.50;99.90;;;;;;5073747;28;20039;-80
2021/12/03 02:43:29;;;;;;;17.88;7.95;;;2.50;99.90;;;;;;5055543;28;20119;-81
2021/12/03 02:45:57;;;;;;;14.30;7.18;;;2.40;99.90;;;;;;5073336;28;20449;-82
2021/12/03 02:48:26;;;;;;;12.65;6.30;;;2.50;99.90;;;;;;5072333;28;20024;-81
2021/12/03 02:50:52;;;;;;;14.05;6.90;;;2.40;99.90;;;;;;5072392;28;20084;-82
2021/12/03 02:53:18;;;;;;;14.65;7.25;;;2.50;99.90;;;;;;5073522;28;20025;-82
2021/12/03 02:55:44;;;;;;;14.35;6.68;;;2.50;99.90;;;;;;5074283;28;20366;-82
2021/12/03 02:58:12;;;;;;;16.45;8.48;;;2.50;99.90;;;;;;5072185;28;20032;-82
2021/12/03 03:00:39;;;;;;;19.75;9.45;;;2.50;99.90;;;;;;5073896;28;20473;-81
2021/12/03 03:03:08;;;;;;;25.67;12.70;;;2.60;99.90;;;;;;5072401;28;20458;-82
2021/12/03 03:05:34;;;;;;;35.80;18.73;;;2.60;99.90;;;;;;5073608;28;20516;-80
2021/12/03 03:07:59;;;;;;;26.25;14.07;;;2.60;99.90;;;;;;5071471;28;20032;-80
2021/12/03 03:10:30;;;;;;;25.17;13.30;;;2.60;99.90;;;;;;5074422;28;20026;-81
2021/12/03 03:12:57;;;;;;;24.10;13.57;;;2.70;99.90;;;;;;5076195;28;20028;-80
2021/12/03 03:15:23;;;;;;;29.13;13.20;;;2.60;99.90;;;;;;5077409;28;20029;-81
2021/12/03 03:17:50;;;;;;;19.98;10.88;;;2.60;99.90;;;;;;5077199;28;20103;-82
2021/12/03 03:20:16;;;;;;;21.30;10.88;;;2.60;99.90;;;;;;5077335;28;20032;-82
2021/12/03 03:22:43;;;;;;;22.15;11.38;;;2.60;99.90;;;;;;5076723;28;20425;-81
2021/12/03 03:25:12;;;;;;;21.70;10.80;;;2.60;99.90;;;;;;5076896;28;20025;-82
2021/12/03 03:27:40;;;;;;;18.38;10.00;;;2.60;99.90;;;;;;5076518;28;20028;-82
2021/12/03 03:30:11;;;;;;;19.27;9.70;;;2.60;99.90;;;;;;5075662;28;20136;-82
2021/12/03 03:32:38;;;;;;;21.42;9.93;;;2.60;99.90;;;;;;5076601;28;20032;-81
2021/12/03 03:35:05;;;;;;;20.13;10.30;;;2.60;99.90;;;;;;5075599;28;20165;-81
2021/12/03 03:37:31;;;;;;;26.27;13.15;;;2.60;99.90;;;;;;5078390;28;20020;-81
2021/12/03 03:39:57;;;;;;;25.85;12.93;;;2.60;99.90;;;;;;5075455;28;20123;-81
2021/12/03 03:42:23;;;;;;;26.42;12.93;;;2.50;99.90;;;;;;5075454;28;20109;-82
2021/12/03 03:44:51;;;;;;;27.25;13.23;;;2.50;99.90;;;;;;5076822;28;20588;-81
2021/12/03 03:47:17;;;;;;;29.45;13.23;;;2.50;99.90;;;;;;5075232;28;20036;-82
2021/12/03 03:49:43;;;;;;;27.15;14.02;;;2.50;99.90;;;;;;5074897;28;20048;-81
2021/12/03 03:52:09;;;;;;;28.48;14.93;;;2.50;99.90;;;;;;5076330;28;20446;-81
2021/12/03 03:54:35;;;;;;;35.35;15.63;;;2.60;99.90;;;;;;5093499;28;20028;-80
2021/12/03 03:57:01;;;;;;;38.80;17.40;;;2.60;99.90;;;;;;5092567;28;20046;-80
2021/12/03 03:59:27;;;;;;;53.03;22.08;;;2.60;99.90;;;;;;5092380;28;20068;-81
2021/12/03 04:01:53;;;;;;;47.67;21.33;;;2.60;99.90;;;;;;5094140;28;20462;-81
2021/12/03 04:04:21;;;;;;;38.83;18.27;;;2.60;99.90;;;;;;5091165;28;20020;-81
2021/12/03 04:06:49;;;;;;;42.80;18.30;;;2.60;99.90;;;;;;5092978;28;20040;-81
2021/12/03 04:09:15;;;;;;;40.80;17.00;;;2.60;99.90;;;;;;5083675;28;20031;-82
2021/12/03 04:11:42;;;;;;;36.25;16.70;;;2.60;99.90;;;;;;5075622;28;20029;-82
2021/12/03 04:14:07;;;;;;;45.53;17.85;;;2.60;99.90;;;;;;5075367;28;20040;-81
2021/12/03 04:16:33;;;;;;;40.72;18.08;;;2.60;99.90;;;;;;5076123;28;20025;-82
2021/12/03 04:19:00;;;;;;;49.60;21.15;;;2.60;99.90;;;;;;5076558;28;20475;-81
2021/12/03 04:21:26;;;;;;;46.40;17.95;;;2.70;99.90;;;;;;5075441;28;20031;-81
2021/12/03 04:23:52;;;;;;;41.15;18.15;;;2.70;99.90;;;;;;5075197;28;20391;-85
2021/12/03 04:26:18;;;;;;;34.55;16.13;;;2.70;99.90;;;;;;5093996;28;20054;-82
2021/12/03 04:28:47;;;;;;;37.40;16.52;;;2.70;99.90;;;;;;5094048;28;20136;-82
2021/12/03 04:31:13;;;;;;;35.03;15.23;;;2.80;99.90;;;;;;5096734;28;20165;-82
2021/12/03 04:33:39;;;;;;;33.40;15.48;;;2.80;99.90;;;;;;5095277;28;20028;-82
2021/12/03 04:36:05;;;;;;;31.40;16.30;;;2.90;99.90;;;;;;5096436;28;20099;-80
2021/12/03 04:38:31;;;;;;;25.00;14.00;;;2.90;99.90;;;;;;5094196;28;20031;-80
2021/12/03 04:40:57;;;;;;;22.30;12.18;;;3.00;99.90;;;;;;5094727;28;20028;-80
2021/12/03 04:43:22;;;;;;;22.25;11.48;;;3.00;99.90;;;;;;5095875;28;20028;-80
2021/12/03 04:45:49;;;;;;;21.50;10.43;;;3.10;99.90;;;;;;5094297;28;20033;-80
2021/12/03 04:48:17;;;;;;;32.10;15.50;;;3.20;99.90;;;;;;5095588;28;20084;-80
2021/12/03 04:50:43;;;;;;;28.90;14.70;;;3.20;99.90;;;;;;5081690;28;20424;-80
2021/12/03 04:53:10;;;;;;;22.27;12.55;;;3.20;99.90;;;;;;5074426;28;20029;-80
2021/12/03 04:55:36;;;;;;;21.65;10.70;;;3.20;99.90;;;;;;5075818;28;20147;-80
2021/12/03 04:58:02;;;;;;;17.00;8.73;;;3.30;99.90;;;;;;5074432;28;20052;-80
2021/12/03 05:00:41;;;;;;;17.17;8.18;;;3.20;99.90;;;;;;5090882;28;20051;-81
2021/12/03 05:03:08;;;;;;;14.38;7.53;;;3.20;99.90;;;;;;5074443;28;20036;-81
2021/12/03 05:05:34;;;;;;;16.50;8.07;;;3.30;99.90;;;;;;5075229;28;20024;-80
2021/12/03 05:08:07;;;;;;;25.25;12.40;;;3.30;99.90;;;;;;5075465;28;20155;-81
2021/12/03 05:10:38;;;;;;;36.53;15.88;;;3.20;99.90;;;;;;5074240;28;20438;-81
2021/12/03 05:13:13;;;;;;;29.95;14.32;;;3.30;99.90;;;;;;5075009;28;20059;-82
2021/12/03 05:15:39;;;;;;;24.70;11.05;;;3.30;99.90;;;;;;5074830;28;20025;-81
2021/12/03 05:18:07;;;;;;;20.65;9.98;;;3.30;99.90;;;;;;5074946;28;20024;-82
2021/12/03 05:20:34;;;;;;;20.02;9.38;;;3.30;99.90;;;;;;5075665;28;20052;-81
2021/12/03 05:23:00;;;;;;;21.63;11.00;;;3.30;99.90;;;;;;5074379;28;20025;-81
2021/12/03 05:25:27;;;;;;;22.77;11.73;;;3.30;99.90;;;;;;5073627;28;20024;-81
2021/12/03 05:27:53;;;;;;;30.30;13.95;;;3.30;99.90;;;;;;5073275;28;20024;-81
2021/12/03 05:30:20;;;;;;;31.90;14.23;;;3.30;99.90;;;;;;5074338;28;20094;-80
2021/12/03 05:32:47;;;;;;;29.77;13.48;;;3.30;99.90;;;;;;5073150;28;20066;-81
2021/12/03 05:35:13;;;;;;;24.38;12.30;;;3.20;99.90;;;;;;5075531;28;20017;-81
2021/12/03 05:37:39;;;;;;;18.50;10.07;;;3.20;99.90;;;;;;5073190;28;20032;-80
2021/12/03 05:40:07;;;;;;;18.88;9.95;;;3.20;99.90;;;;;;5075534;28;20077;-81
2021/12/03 05:42:32;;;;;;;20.25;9.70;;;3.20;99.90;;;;;;5073578;28;20542;-80
2021/12/03 05:44:58;;;;;;;13.63;8.27;;;3.10;99.90;;;;;;5074826;28;20107;-81
2021/12/03 05:47:25;;;;;;;14.77;8.23;;;3.10;99.90;;;;;;5072808;28;20474;-80
2021/12/03 05:49:51;;;;;;;19.50;9.10;;;3.20;99.90;;;;;;5073076;28;20198;-80
2021/12/03 05:52:17;;;;;;;14.05;8.10;;;3.20;99.90;;;;;;5089842;28;20029;-80
2021/12/03 05:54:44;;;;;;;17.90;9.50;;;3.20;99.90;;;;;;5074238;28;20029;-81
2021/12/03 05:57:10;;;;;;;20.45;10.52;;;3.20;99.90;;;;;;5073261;28;20025;-80
2021/12/03 05:59:36;;;;;;;17.08;8.85;;;3.20;99.90;;;;;;5073029;28;20121;-81
2021/12/03 06:02:02;;;;;;;20.70;11.20;;;3.20;99.90;;;;;;5072605;28;20466;-81
2021/12/03 06:04:29;;;;;;;21.10;11.25;;;3.20;99.90;;;;;;5073797;28;20058;-82
2021/12/03 06:06:54;;;;;;;20.48;11.23;;;3.20;99.90;;;;;;5074392;28;20036;-83
2021/12/03 06:09:21;;;;;;;29.13;12.65;;;3.20;99.90;;;;;;5072373;28;20607;-81
2021/12/03 06:11:47;;;;;;;24.73;12.48;;;3.30;99.90;;;;;;5072258;28;20111;-79
2021/12/03 06:14:13;;;;;;;23.42;13.77;;;3.30;99.90;;;;;;5073253;28;20063;-80
2021/12/03 06:16:38;;;;;;;24.40;12.98;;;3.30;99.90;;;;;;5073733;28;20383;-79
2021/12/03 06:19:04;;;;;;;25.00;12.32;;;3.30;99.90;;;;;;5073945;28;20440;-80
2021/12/03 06:21:30;;;;;;;26.92;13.30;;;3.40;99.90;;;;;;5072522;28;20025;-79
2021/12/03 06:23:58;;;;;;;26.40;12.75;;;3.40;99.90;;;;;;5073495;28;20036;-79
2021/12/03 06:26:25;;;;;;;25.63;12.23;;;3.40;99.90;;;;;;5073130;28;20032;-79
2021/12/03 06:28:50;;;;;;;26.80;13.77;;;3.50;99.90;;;;;;5073678;28;20059;-79
2021/12/03 06:31:16;;;;;;;30.13;14.30;;;3.50;99.90;;;;;;5088916;28;20443;-79
2021/12/03 06:33:42;;;;;;;22.98;12.98;;;3.50;99.90;;;;;;5073729;28;20056;-80
2021/12/03 06:36:08;;;;;;;27.00;14.60;;;3.60;99.90;;;;;;5072421;28;20033;-79
2021/12/03 06:38:38;;;;;;;26.30;14.70;;;3.70;99.90;;;;;;5072142;28;20075;-79
2021/12/03 06:41:05;;;;;;;30.83;15.95;;;3.70;99.90;;;;;;5072149;28;20035;-81
2021/12/03 06:43:30;;;;;;;30.63;16.63;;;3.80;99.90;;;;;;5073500;28;20078;-81
2021/12/03 06:45:56;;;;;;;35.20;17.20;;;4.00;99.90;;;;;;5076724;28;20028;-80
2021/12/03 06:48:22;;;;;;;31.27;16.75;;;4.20;99.90;;;;;;5077904;28;20031;-81
2021/12/03 06:50:49;;;;;;;39.42;20.75;;;4.50;99.90;;;;;;5093218;28;20524;-80
2021/12/03 06:53:19;;;;;;;41.80;21.10;;;4.80;99.90;;;;;;5076143;28;20063;-82
2021/12/03 06:55:51;;;;;;;34.97;18.45;;;5.20;99.90;;;;;;5077446;28;20036;-81
2021/12/03 06:58:20;;;;;;;28.95;15.50;;;5.50;99.90;;;;;;5075997;28;20107;-84
2021/12/03 07:00:48;;;;;;;22.33;12.55;;;5.90;99.90;;;;;;5075757;28;20070;-81
2021/12/03 07:03:15;;;;;;;22.13;11.52;;;6.30;99.90;;;;;;5075636;28;20475;-81
2021/12/03 07:05:41;;;;;;;21.48;11.88;;;6.80;99.90;;;;;;5091125;28;20036;-84
2021/12/03 07:08:09;;;;;;;22.42;13.10;;;7.00;99.90;;;;;;5096592;28;20032;-81
2021/12/03 07:10:35;;;;;;;26.23;14.80;;;7.30;99.90;;;;;;5095209;28;20054;-83
2021/12/03 07:13:01;;;;;;;29.15;14.88;;;7.50;99.90;;;;;;5096749;28;20052;-82
2021/12/03 07:15:27;;;;;;;33.35;16.55;;;7.80;99.90;;;;;;5096347;28;20024;-81
2021/12/03 07:17:53;;;;;;;29.83;16.45;;;8.00;98.90;;;;;;5095358;28;20524;-81
2021/12/03 07:20:21;;;;;;;22.02;14.13;;;8.20;98.60;;;;;;5092132;28;20059;-81
2021/12/03 07:22:47;;;;;;;22.55;12.85;;;8.30;96.60;;;;;;5095794;28;20027;-81
2021/12/03 07:25:13;;;;;;;16.75;10.65;;;8.40;94.20;;;;;;5095611;28;20473;-83
2021/12/03 07:27:40;;;;;;;24.33;13.98;;;8.40;93.00;;;;;;5094662;28;20024;-82
2021/12/03 07:30:08;;;;;;;26.70;15.27;;;8.40;94.40;;;;;;5102910;28;20031;-82
2021/12/03 07:32:34;;;;;;;15.60;9.95;;;8.60;92.10;;;;;;5102053;28;20063;-82
2021/12/03 07:35:00;;;;;;;14.32;9.15;;;8.60;91.30;;;;;;5095728;28;20482;-82
2021/12/03 07:37:26;;;;;;;17.85;11.23;;;8.70;92.20;;;;;;5095448;28;20024;-82
2021/12/03 07:39:52;;;;;;;13.60;9.25;;;8.90;92.30;;;;;;5094108;28;20699;-81
2021/12/03 07:42:19;;;;;;;16.30;11.73;;;9.10;89.80;;;;;;5093637;28;20028;-82
2021/12/03 07:44:45;;;;;;;24.23;14.60;;;9.00;89.90;;;;;;5096891;28;20024;-83
2021/12/03 07:47:14;;;;;;;26.52;15.02;;;9.00;90.40;;;;;;5095183;28;20127;-84
2021/12/03 07:49:41;;;;;;;23.70;13.85;;;9.00;90.10;;;;;;5128688;27;20051;-83
2021/12/03 07:52:11;;;;;;;18.08;11.57;;;8.90;90.10;;;;;;5096684;28;20036;-83
2021/12/03 07:54:37;;;;;;;22.17;12.23;;;8.70;90.50;;;;;;5095644;28;20023;-83
2021/12/03 07:57:02;;;;;;;16.00;10.23;;;8.70;90.90;;;;;;5129613;27;20355;-83
2021/12/03 07:59:29;;;;;;;17.88;10.48;;;8.60;91.20;;;;;;5094728;28;20042;-84
2021/12/03 08:01:55;;;;;;;18.27;11.15;;;8.50;91.80;;;;;;5096310;28;20028;-84
2021/12/03 08:04:20;;;;;;;19.83;11.65;;;8.50;93.10;;;;;;5095973;28;20331;-83
2021/12/03 08:06:51;;;;;;;31.35;16.73;;;8.50;92.90;;;;;;5130782;27;20394;-83
2021/12/03 08:09:17;;;;;;;26.38;14.38;;;8.50;92.80;;;;;;5128669;27;20032;-86
2021/12/03 08:11:44;;;;;;;23.85;14.35;;;8.50;93.90;;;;;;5094561;28;20472;-85
2021/12/03 08:14:12;;;;;;;20.10;13.18;;;8.50;93.70;;;;;;5129273;27;20431;-86
2021/12/03 08:16:38;;;;;;;17.05;11.65;;;8.60;94.10;;;;;;5094256;28;20374;-81
2021/12/03 08:19:07;;;;;;;28.83;19.05;;;8.60;94.30;;;;;;5129417;27;20047;-88
2021/12/03 08:21:33;;;;;;;31.67;20.50;;;8.60;93.90;;;;;;5095480;28;20035;-85
2021/12/03 08:24:00;;;;;;;22.35;15.02;;;8.60;93.60;;;;;;5129061;27;20024;-82
2021/12/03 08:26:27;;;;;;;20.27;13.20;;;8.60;94.10;;;;;;5096175;28;20447;-82
2021/12/03 08:28:53;;;;;;;23.45;13.68;;;8.70;95.20;;;;;;5095771;28;20024;-83
2021/12/03 08:31:19;;;;;;;31.75;17.35;;;8.90;95.10;;;;;;5108332;28;20032;-81
2021/12/03 08:33:45;;;;;;;28.67;17.38;;;9.00;95.50;;;;;;5110627;28;20089;-80
2021/12/03 08:36:11;;;;;;;25.17;14.65;;;9.20;95.20;;;;;;5112715;28;20032;-84
2021/12/03 08:38:37;;;;;;;22.75;13.18;;;9.50;94.80;;;;;;5113379;28;20035;-83
2021/12/03 08:41:04;;;;;;;22.52;12.85;;;9.80;94.60;;;;;;5112873;28;20020;-84
2021/12/03 08:43:30;;;;;;;20.73;12.65;;;10.20;93.10;;;;;;5114703;28;20024;-84
2021/12/03 08:45:57;;;;;;;17.90;11.25;;;10.60;91.50;;;;;;5113862;28;20041;-83
2021/12/03 08:48:24;;;;;;;19.30;11.18;;;11.00;91.60;;;;;;5097024;28;20024;-85
2021/12/03 08:51:24;;;;;;;17.52;10.43;;;11.30;88.40;;;;;;5129398;27;20044;-85
2021/12/03 08:56:21;;;;;;;17.45;8.82;;;11.20;85.70;;;;;;5096313;28;20058;-82
2021/12/03 08:58:47;;;;;;;13.65;8.38;;;11.10;86.40;;;;;;5127973;27;20462;-84
2021/12/03 09:01:14;;;;;;;17.42;11.60;;;11.00;87.20;;;;;;5128862;27;20046;-82
2021/12/03 09:03:39;;;;;;;17.85;11.95;;;11.10;88.10;;;;;;5129218;27;20027;-84
2021/12/03 09:06:05;;;;;;;14.05;10.07;;;11.20;87.20;;;;;;5094044;28;20020;-81
2021/12/03 09:08:32;;;;;;;20.88;11.20;;;11.40;86.20;;;;;;5095261;28;20032;-79
2021/12/03 09:10:58;;;;;;;23.45;11.98;;;11.70;85.40;;;;;;5095388;28;20035;-82
2021/12/03 09:13:24;;;;;;;26.27;13.80;;;12.10;83.20;;;;;;5094193;28;20024;-83
2021/12/03 09:18:44;;;;;;;16.50;9.02;;;12.70;79.80;;;;;;5091359;28;20032;-83
2021/12/03 09:21:28;;;;;;;13.07;7.38;;;12.90;79.30;;;;;;5091602;28;20458;-84
2021/12/03 09:26:29;;;;;;;37.22;19.92;;;13.30;78.40;;;;;;5091517;28;20105;-84
2021/12/03 09:29:04;;;;;;;34.20;16.13;;;13.50;76.90;;;;;;5090007;28;20376;-86
2021/12/03 09:31:29;;;;;;;31.63;14.25;;;13.80;75.30;;;;;;5090628;28;20448;-84
2021/12/03 09:33:57;;;;;;;28.98;13.20;;;14.00;74.50;;;;;;5094377;28;20107;-83
2021/12/03 09:36:23;;;;;;;19.25;10.27;;;14.00;73.70;;;;;;5126478;27;20052;-82
2021/12/03 09:38:49;;;;;;;20.17;9.57;;;13.80;73.50;;;;;;5093984;28;20442;-82
2021/12/03 09:41:18;;;;;;;18.33;8.20;;;13.50;73.80;;;;;;5093500;28;20028;-82
2021/12/03 09:43:47;;;;;;;13.80;7.63;;;13.10;74.20;;;;;;5093139;28;20127;-81
2021/12/03 09:51:29;;;;;;;15.10;7.32;;;12.10;79.00;;;;;;5095478;28;20104;-83
2021/12/03 09:56:40;;;;;;;10.90;6.15;;;12.50;81.70;;;;;;5094867;28;20116;-82
2021/12/03 10:15:11;;;;;;;13.02;5.72;;;13.60;75.90;;;;;;5094076;28;20527;-82
2021/12/03 10:41:42;;;;;;;10.50;5.10;;;15.50;65.10;;;;;;5080728;28;20052;-83
2021/12/03 10:44:43;;;;;;;11.85;4.97;;;14.90;66.70;;;;;;5092065;28;20024;-82
2021/12/03 10:47:29;;;;;;;;;;;14.70;67.90;;;;;;5094216;28;20497;-83
2021/12/03 10:50:08;;;;;;;8.40;3.72;;;14.30;68.30;;;;;;5092070;28;19946;-82
2021/12/03 10:52:49;;;;;;;8.07;3.80;;;14.00;69.40;;;;;;5093381;28;20028;-82
2021/12/03 11:28:23;;;;;;;9.85;4.85;;;13.70;73.20;;;;;;5093627;28;20032;-81
2021/12/03 12:26:10;;;;;;;6.72;3.20;;;11.60;77.90;;;;;;5095679;28;20400;-86
2021/12/03 13:15:22;;;;;;;9.73;4.38;;;10.40;72.20;;;;;;5097349;28;20039;-81
2021/12/03 13:17:54;;;;;;;;;;;10.20;73.00;;;;;;5103301;27;20097;-80
2021/12/03 13:20:38;;;;;;;10.70;5.22;;;9.90;73.40;;;;;;5103777;28;19903;-80
2021/12/03 14:29:24;;;;;;;9.20;5.97;;;7.90;79.50;;;;;;5094219;28;20051;-82
2021/12/03 14:57:09;;;;;;;18.90;11.70;;;6.70;82.10;;;;;;5094478;28;20035;-81
2021/12/03 14:59:38;;;;;;;19.83;13.02;;;6.60;82.20;;;;;;5093641;28;20024;-82
2021/12/03 15:02:31;;;;;;;19.50;12.23;;;6.40;82.50;;;;;;5093579;28;20355;-83
2021/12/03 15:05:07;;;;;;;20.98;13.43;;;6.40;82.90;;;;;;5093233;28;20458;-81
2021/12/03 15:07:44;;;;;;;20.92;12.80;;;6.30;83.40;;;;;;5130707;27;20028;-81
2021/12/03 15:10:19;;;;;;;18.60;11.50;;;6.20;83.60;;;;;;5097523;28;20039;-82
2021/12/03 15:21:11;;;;;;;24.85;15.10;;;6.00;85.30;;;;;;5098115;28;20043;-80
2021/12/03 15:23:54;;;;;;;25.05;14.27;;;6.00;85.50;;;;;;5097154;28;20101;-80
2021/12/03 15:26:38;;;;;;;26.17;15.18;;;5.90;85.60;;;;;;5096088;28;20114;-81
2021/12/03 15:34:35;;;;;;;30.55;15.85;;;5.80;87.40;;;;;;5097240;28;20020;-81
2021/12/03 15:37:16;;;;;;;32.13;16.98;;;5.70;87.40;;;;;;5129731;27;20028;-81
2021/12/03 16:04:23;;;;;;;17.52;9.52;;;4.40;92.60;;;;;;5053641;28;20025;-81
2021/12/03 16:12:07;;;;;;;14.40;7.78;;;4.30;93.70;;;;;;5096735;28;20047;-83
2021/12/03 16:14:49;;;;;;;12.93;8.10;;;4.20;93.50;;;;;;5096036;28;20047;-83
2021/12/03 16:44:27;;;;;;;20.63;14.07;;;3.50;96.10;;;;;;5095900;28;20062;-84
2021/12/03 16:47:11;;;;;;;32.70;17.83;;;3.50;96.30;;;;;;5131216;27;20111;-83
2021/12/03 16:52:21;;;;;;;12.57;7.57;;;3.50;96.80;;;;;;5095590;28;20043;-83
2021/12/03 16:54:56;;;;;;;8.13;5.57;;;3.50;96.60;;;;;;5096225;28;20034;-82
2021/12/03 16:57:28;;;;;;;6.20;4.65;;;3.40;96.90;;;;;;5094459;28;20054;-82
2021/12/03 16:59:56;;;;;;;5.18;4.05;;;3.40;97.00;;;;;;5093649;28;20488;-81
2021/12/03 17:02:31;;;;;;;5.32;4.07;;;3.30;97.30;;;;;;5094959;28;20024;-82
2021/12/03 17:48:00;;;;;;;4.63;3.33;;;2.90;99.90;;;;;;5110392;28;20024;-80
2021/12/03 17:53:47;;;;;;;13.32;7.55;;;2.90;99.90;;;;;;5107568;28;20028;-82
2021/12/03 17:58:37;;;;;;;75.63;37.85;;;3.00;99.90;;;;;;5103081;28;20077;-81
2021/12/03 18:01:17;;;;;;;37.72;20.35;;;2.90;99.90;;;;;;5093681;28;20020;-80
2021/12/03 18:03:50;;;;;;;19.33;11.30;;;3.00;99.90;;;;;;5093352;28;20370;-80
2021/12/03 18:09:32;;;;;;;8.82;5.93;;;2.90;99.90;;;;;;5094092;28;20036;-81
2021/12/03 18:15:22;;;;;;;7.73;5.13;;;2.90;99.90;;;;;;5064735;28;20044;-84
2021/12/03 18:18:05;;;;;;;5.82;4.25;;;2.90;99.90;;;;;;5093090;28;20077;-88
2021/12/03 18:53:23;;;;;;;10.32;6.90;;;2.70;99.90;;;;;;5077178;28;20068;-83
2021/12/03 18:55:59;;;;;;;9.45;7.07;;;2.70;99.90;;;;;;5076299;28;20032;-82
2021/12/03 18:58:27;;;;;;;9.88;7.13;;;2.70;99.90;;;;;;5077364;28;20373;-83
2021/12/03 19:00:57;;;;;;;10.25;7.20;;;2.70;99.90;;;;;;5075915;28;20176;-84
2021/12/03 19:05:58;;;;;;;11.48;7.18;;;2.70;99.90;;;;;;5077687;28;20024;-83
2021/12/03 19:09:02;;;;;;;11.18;7.63;;;2.70;99.90;;;;;;5076904;28;20443;-80
2021/12/03 19:12:06;;;;;;;9.52;6.47;;;2.70;99.90;;;;;;5073430;28;20044;-82
2021/12/03 19:14:09;;;;;;;10.52;6.53;;;2.70;99.90;;;;;;5066510;28;20336;-83
2021/12/03 19:16:35;;;;;;;10.18;7.32;;;2.70;99.90;;;;;;5075826;28;20036;-84
2021/12/03 19:19:04;;;;;;;10.88;8.13;;;2.60;99.90;;;;;;5075692;28;20462;-82
2021/12/03 19:21:33;;;;;;;11.20;7.93;;;2.60;99.90;;;;;;5077335;28;20101;-82
2021/12/03 19:24:01;;;;;;;13.48;8.00;;;2.60;99.90;;;;;;5076237;28;20531;-80
2021/12/03 19:26:28;;;;;;;15.32;9.52;;;2.60;99.90;;;;;;5077131;28;20020;-80
2021/12/03 19:28:56;;;;;;;17.23;11.60;;;2.60;99.90;;;;;;5076243;28;20033;-81
2021/12/03 19:31:27;;;;;;;17.63;11.77;;;2.60;99.90;;;;;;5075229;28;20043;-81
2021/12/03 19:33:53;;;;;;;17.50;10.80;;;2.60;99.90;;;;;;5075420;28;20032;-82
2021/12/03 19:36:25;;;;;;;18.42;12.05;;;2.60;99.90;;;;;;5075039;28;20028;-80
2021/12/03 19:38:54;;;;;;;17.33;10.50;;;2.50;99.90;;;;;;5081871;28;20024;-78
2021/12/03 19:44:03;;;;;;;228.80;119.60;;;2.50;99.90;;;;;;5096572;28;20088;-82
2021/12/03 19:46:34;;;;;;;168.55;89.93;;;2.50;99.90;;;;;;5095650;28;20485;-80
2021/12/03 19:51:28;;;;;;;68.57;37.55;;;2.60;99.90;;;;;;5095390;28;20051;-80
2021/12/03 19:53:59;;;;;;;45.50;26.42;;;2.60;99.90;;;;;;5095229;28;20442;-80
2021/12/03 19:56:30;;;;;;;33.75;19.90;;;2.60;99.90;;;;;;5095472;28;20035;-79
2021/12/03 19:58:58;;;;;;;33.35;17.63;;;2.60;99.90;;;;;;5094682;28;20201;-80
2021/12/03 20:01:24;;;;;;;27.20;15.10;;;2.50;99.90;;;;;;5096411;28;20447;-80
2021/12/03 20:03:53;;;;;;;22.23;12.25;;;2.60;99.90;;;;;;5094971;28;20024;-81
2021/12/03 20:06:22;;;;;;;17.23;10.90;;;2.50;99.90;;;;;;5096473;28;20546;-79
2021/12/03 20:09:04;;;;;;;18.42;11.48;;;2.50;99.90;;;;;;5096085;28;20031;-80
2021/12/03 20:11:39;;;;;;;20.52;11.82;;;2.50;99.90;;;;;;5096298;28;20052;-80
2021/12/03 20:14:07;;;;;;;20.67;12.63;;;2.50;99.90;;;;;;5095136;28;20020;-79
2021/12/03 20:16:40;;;;;;;17.00;10.68;;;2.50;99.90;;;;;;5094674;28;20024;-80
2021/12/03 20:19:12;;;;;;;17.25;10.85;;;2.40;99.90;;;;;;5093909;28;20082;-80